Water Valley, MS (38965)

10:52 PM CDT on July 02, 2015 (GMT -0500)
BMHNM | | Change Station
CLOSE
Current Station
Personal Weather Station
Location: Oxford, MS
Elevation: 442 ft
Nearby Weather Stations

Elev 442 ft 34.35 °N, 89.53 °W | Updated 7 minutes ago

Partly Cloudy
Partly Cloudy
78.8 °F
Feels Like 82 °F
N
6.3
Wind Variable Wind from SW

Today
High -- | Low -- °F
--% Chance of Precip.
Yesterday
High -- | Low -- °F
Precip. -- in
5:50 AM 8:14 PM
Full, 99% visible
Pressure 29.90 in
Visibility 10.0 miles
Clouds Few 10000 ft
Heat Index 82 °F
Dew Point 73 °F
Humidity 83%
Rainfall 0.00 in
Snow Depth Not available.
UV 0 out of 12
Pollen .50 out of 12
Air Quality Not available.
Flu Activity Not available.
METAR KTUP 030253Z 24007KT 10SM FEW100 26/23 A2991 RMK AO2 SLP124 T02610228 51006

More Conditions Fewer Conditions

Pressure 29.90 in
Visibility 10.0 miles
Clouds Few 10000 ft
Heat Index 82 °F
Dew Point 73 °F
Humidity 83%
Rainfall 0.00 in
Snow Depth Not available.
UV 0 out of 12
Pollen .50 out of 12
Air Quality Not available.
Flu Activity Not available.
METAR KTUP 030253Z 24007KT 10SM FEW100 26/23 A2991 RMK AO2 SLP124 T02610228 51006

More Conditions Fewer Conditions

10-Day Weather Forecast

×

Almanac

Astronomy

Jul. 02, 2015 Rise Set
Actual Time
Civil Twilight
Nautical Twilight
Astronomical Twilight
Moon
Length of Visible Light
Length of Day
Tomorrow will be .
, % of the Moon is Illuminated

Today's Extremes

State Highs State Lows

Community

WunderPhotos

Upload Photos

1,834,615 photos uploaded!

WunderBlogs® & News

Nearby

Air Quality

  Air Quality AQ Index Pollutant
Not available.

Snow Depth

Station Depth Elevation

Earthquake Activity

City Distance Mag. Time & Date
Minimum magnitude displayed is 2.5.

Coastal Water Temperatures

Place Temperature

Stations

Nearby Weather Stations

Station Location Temp. Windchill Dew Point Humidity Wind Precip. Elev Updated Type